Terminal Aerodrome Forecast
Issued by NWS

Home | Current Version | Previous Version | Text Only | Print | Product List | Glossary On
Versions: 1 2 3 4 5 6 7 8 9 10 11 12 13 14 15 16 17 18
000
FTUS45 KMSO 211600 AAB
TAFSMN
TAF AMD
KSMN 211600Z 2116/2212 VRB03KT P6SM BKN020
     FM211700 VRB03KT P6SM BKN030
     FM211800 VRB04KT P6SM SCT025
     FM220900 19005KT P6SM VCSH OVC060=

USA.gov is the U.S. government's official web portal to all federal, state and local government web resources and services.